»·PEaware :: N137AD KSNA-KSNA

N137AD :: KSNA-KSNA

FLIGHT INFORMATION

Flight Status: Arrived
Operator: Privately registered:
United States
More flights under this callsign
Pilot: Mike Z. (25595)
Aircraft: CESSNA 172 SKYHAWK
(C172)
More flights by this aircraft type
Origin: KSNA John Wayne-Orange Co
United States
Destination: KSNA John Wayne-Orange Co
United States
More flights between these airports :: More routes between these airports
Route: +SLI
File this flight plan on PilotEdge
Remarks: I-01
Altitude:
(Current/Filed)
3,500ft
Speed:
(Current/Filed)
100kts
Departed: 10-Aug-19 01:31 PM
Arrived: 10-Aug-19 01:58 PM
Distance/Time
Traveled:
0nm/0:27
Distance/Time
To Go:
Arrived

Flight Plot

Page will automatically refresh every two minutes.


Map Options




Map Legend


Flown Route
Filed Route
Departure Airport
Arrival Airport
Navaid (VOR, NDB)
Fix

Horizontal Profiles

Position Reports

Time Latitude Longitude Heading Altitude Ground
Speed
10-Aug-19 13:08 33.674459 -117.871752 132 60ft 0kts
10-Aug-19 13:10 33.674460 -117.871752 134 60ft 0kts
10-Aug-19 13:10 33.674460 -117.871752 134 60ft 0kts
10-Aug-19 13:11 33.674460 -117.871752 134 60ft 0kts
10-Aug-19 13:12 33.674460 -117.871752 134 60ft 0kts
10-Aug-19 13:13 33.674460 -117.871752 134 60ft 0kts
10-Aug-19 13:14 33.674460 -117.871752 134 60ft 0kts
10-Aug-19 13:15 33.674460 -117.871752 134 60ft 0kts
10-Aug-19 13:16 33.674460 -117.871752 134 60ft 0kts
10-Aug-19 13:17 33.674460 -117.871752 134 60ft 0kts
10-Aug-19 13:18 33.674460 -117.871752 134 60ft 0kts
10-Aug-19 13:19 33.674460 -117.871752 134 60ft 0kts
10-Aug-19 13:20 33.674460 -117.871752 134 60ft 0kts
10-Aug-19 13:21 33.674460 -117.871752 134 60ft 0kts
10-Aug-19 13:22 33.674460 -117.871752 134 60ft 0kts
10-Aug-19 13:23 33.674441 -117.871378 118 60ft 7kts
10-Aug-19 13:24 33.677800 -117.868967 31 60ft 18kts
10-Aug-19 13:25 33.681212 -117.866440 116 60ft 0kts
10-Aug-19 13:26 33.681212 -117.866439 116 60ft 0kts
10-Aug-19 13:27 33.681212 -117.866440 116 60ft 0kts
10-Aug-19 13:28 33.681212 -117.866440 116 60ft 0kts
10-Aug-19 13:29 33.681212 -117.866440 116 60ft 0kts
10-Aug-19 13:30 33.672371 -117.872035 218 409ft 74kts
10-Aug-19 13:31 33.656445 -117.885920 227 1572ft 74kts
10-Aug-19 13:32 33.641270 -117.904414 223 2036ft 86kts
10-Aug-19 13:33 33.621220 -117.928743 225 2019ft 92kts
10-Aug-19 13:34 33.604381 -117.949275 225 2031ft 92kts
10-Aug-19 13:35 33.584951 -117.972967 225 2170ft 94kts
10-Aug-19 13:36 33.568017 -117.993557 224 2658ft 81kts
10-Aug-19 13:37 33.577673 -118.009206 10 3138ft 96kts
10-Aug-19 13:38 33.609126 -117.999002 12 3015ft 123kts
10-Aug-19 13:39 33.641860 -117.988223 12 3017ft 119kts
10-Aug-19 13:40 33.673713 -117.977581 16 3016ft 118kts
10-Aug-19 13:41 33.703763 -117.961120 25 3017ft 119kts
10-Aug-19 13:42 33.733821 -117.943162 24 3018ft 119kts
10-Aug-19 13:43 33.763794 -117.925264 24 3017ft 120kts
10-Aug-19 13:44 33.794067 -117.907116 24 3016ft 120kts
10-Aug-19 13:45 33.824294 -117.889068 23 3016ft 120kts
10-Aug-19 13:46 33.854140 -117.870715 24 3013ft 119kts
10-Aug-19 13:47 33.863585 -117.835735 92 3011ft 117kts
10-Aug-19 13:48 33.863083 -117.796377 104 3010ft 116kts
10-Aug-19 13:49 33.847193 -117.769688 169 3013ft 104kts
10-Aug-19 13:50 33.819654 -117.773037 216 3012ft 98kts
10-Aug-19 13:51 33.797022 -117.790458 212 2635ft 96kts
10-Aug-19 13:52 33.771108 -117.807963 209 2084ft 108kts
10-Aug-19 13:53 33.744201 -117.825217 209 1483ft 110kts
10-Aug-19 13:54 33.721530 -117.839685 208 984ft 103kts
10-Aug-19 13:55 33.699311 -117.853799 210 489ft 79kts
10-Aug-19 13:56 33.682472 -117.864528 210 149ft 66kts
10-Aug-19 13:57 33.675800 -117.869304 280 60ft 5kts
10-Aug-19 13:58 33.676010 -117.869899 292 60ft 5kts
10-Aug-19 13:59 33.673016 -117.872671 248 60ft 6kts
10-Aug-19 14:00 33.672847 -117.872889 208 60ft 0kts
10-Aug-19 14:01 33.672847 -117.872889 208 60ft 0kts
10-Aug-19 14:02 33.672847 -117.872889 208 60ft 0kts
10-Aug-19 14:03 33.672847 -117.872889 208 60ft 0kts

Navigation Log

Ident Type
Flight plan parsing failed, navigation log unavailable